sensor_id;sensor_type;location;lat;lon;timestamp;pressure;altitude;pressure_sealevel;temperature;humidity
15050;BME280;7622;42.724;23.250;2023-03-04T00:01:03;94701.31;;;5.51;100.00
15050;BME280;7622;42.724;23.250;2023-03-04T00:03:30;94691.75;;;5.64;100.00
15050;BME280;7622;42.724;23.250;2023-03-04T00:05:57;94695.16;;;5.76;100.00
15050;BME280;7622;42.724;23.250;2023-03-04T00:08:24;94701.59;;;5.70;100.00
15050;BME280;7622;42.724;23.250;2023-03-04T00:10:51;94695.59;;;5.59;100.00
15050;BME280;7622;42.724;23.250;2023-03-04T00:13:18;94690.31;;;5.60;100.00
15050;BME280;7622;42.724;23.250;2023-03-04T00:15:48;94627.28;;;5.31;100.00
15050;BME280;7622;42.724;23.250;2023-03-04T00:18:15;94688.59;;;5.72;100.00
15050;BME280;7622;42.724;23.250;2023-03-04T00:20:42;94688.34;;;5.87;100.00
15050;BME280;7622;42.724;23.250;2023-03-04T00:23:09;94690.31;;;5.95;100.00
15050;BME280;7622;42.724;23.250;2023-03-04T00:25:36;94683.19;;;5.87;100.00
15050;BME280;7622;42.724;23.250;2023-03-04T00:28:03;94685.50;;;5.90;100.00
15050;BME280;7622;42.724;23.250;2023-03-04T00:30:30;94678.22;;;5.84;100.00
15050;BME280;7622;42.724;23.250;2023-03-04T00:32:58;94674.91;;;5.82;100.00
15050;BME280;7622;42.724;23.250;2023-03-04T00:35:25;94679.13;;;5.72;100.00
15050;BME280;7622;42.724;23.250;2023-03-04T00:37:52;94620.00;;;5.36;100.00
15050;BME280;7622;42.724;23.250;2023-03-04T00:40:20;94673.97;;;5.72;100.00
15050;BME280;7622;42.724;23.250;2023-03-04T00:42:47;94667.84;;;5.62;100.00
15050;BME280;7622;42.724;23.250;2023-03-04T00:45:14;94677.94;;;5.65;100.00
15050;BME280;7622;42.724;23.250;2023-03-04T00:47:41;94673.25;;;5.81;100.00
15050;BME280;7622;42.724;23.250;2023-03-04T00:50:10;94654.03;;;5.63;100.00
15050;BME280;7622;42.724;23.250;2023-03-04T00:52:37;94673.72;;;5.64;100.00
15050;BME280;7622;42.724;23.250;2023-03-04T00:55:05;94673.47;;;5.56;100.00
15050;BME280;7622;42.724;23.250;2023-03-04T00:57:33;94668.66;;;5.63;100.00
15050;BME280;7622;42.724;23.250;2023-03-04T01:00:00;94675.00;;;5.59;100.00
15050;BME280;7622;42.724;23.250;2023-03-04T01:02:27;94664.09;;;5.55;100.00
15050;BME280;7622;42.724;23.250;2023-03-04T01:04:54;94669.03;;;5.69;100.00
15050;BME280;7622;42.724;23.250;2023-03-04T01:07:22;94670.66;;;5.59;100.00
15050;BME280;7622;42.724;23.250;2023-03-04T01:09:49;94661.25;;;5.47;100.00
15050;BME280;7622;42.724;23.250;2023-03-04T01:12:16;94665.47;;;5.48;100.00
15050;BME280;7622;42.724;23.250;2023-03-04T01:14:43;94674.50;;;5.53;100.00
15050;BME280;7622;42.724;23.250;2023-03-04T01:17:10;94667.84;;;5.62;100.00
15050;BME280;7622;42.724;23.250;2023-03-04T01:19:37;94664.69;;;5.70;100.00
15050;BME280;7622;42.724;23.250;2023-03-04T01:22:04;94661.50;;;5.55;100.00
15050;BME280;7622;42.724;23.250;2023-03-04T01:24:33;94672.75;;;5.54;100.00
15050;BME280;7622;42.724;23.250;2023-03-04T01:27:01;94666.44;;;5.58;100.00
15050;BME280;7622;42.724;23.250;2023-03-04T01:29:28;94658.16;;;5.66;100.00
15050;BME280;7622;42.724;23.250;2023-03-04T01:31:55;94659.44;;;5.71;100.00
15050;BME280;7622;42.724;23.250;2023-03-04T01:34:22;94656.97;;;5.59;100.00
15050;BME280;7622;42.724;23.250;2023-03-04T01:36:49;94657.53;;;5.62;100.00
15050;BME280;7622;42.724;23.250;2023-03-04T01:39:16;94646.56;;;5.71;100.00
15050;BME280;7622;42.724;23.250;2023-03-04T01:41:44;94645.38;;;5.64;100.00
15050;BME280;7622;42.724;23.250;2023-03-04T01:44:12;94650.53;;;5.64;100.00
15050;BME280;7622;42.724;23.250;2023-03-04T01:46:48;94642.81;;;5.75;100.00
15050;BME280;7622;42.724;23.250;2023-03-04T01:49:16;94631.63;;;5.87;100.00
15050;BME280;7622;42.724;23.250;2023-03-04T01:51:47;94629.50;;;5.92;100.00
15050;BME280;7622;42.724;23.250;2023-03-04T01:54:14;94631.09;;;5.82;100.00
15050;BME280;7622;42.724;23.250;2023-03-04T01:56:45;94628.13;;;5.53;100.00
15050;BME280;7622;42.724;23.250;2023-03-04T01:59:14;94595.66;;;5.40;100.00
15050;BME280;7622;42.724;23.250;2023-03-04T02:01:43;94628.84;;;5.55;100.00
15050;BME280;7622;42.724;23.250;2023-03-04T02:04:11;94629.56;;;5.58;100.00
15050;BME280;7622;42.724;23.250;2023-03-04T02:06:38;94627.44;;;5.63;100.00
15050;BME280;7622;42.724;23.250;2023-03-04T02:09:06;94631.56;;;5.65;100.00
15050;BME280;7622;42.724;23.250;2023-03-04T02:11:34;94626.97;;;5.58;100.00
15050;BME280;7622;42.724;23.250;2023-03-04T02:14:03;94628.28;;;5.63;100.00
15050;BME280;7622;42.724;23.250;2023-03-04T02:16:31;94628.00;;;5.55;100.00
15050;BME280;7622;42.724;23.250;2023-03-04T02:18:58;94626.34;;;5.43;100.00
15050;BME280;7622;42.724;23.250;2023-03-04T02:21:28;94628.94;;;5.54;100.00
15050;BME280;7622;42.724;23.250;2023-03-04T02:24:03;94627.09;;;5.67;100.00
15050;BME280;7622;42.724;23.250;2023-03-04T02:26:35;94563.81;;;5.30;100.00
15050;BME280;7622;42.724;23.250;2023-03-04T02:29:04;94621.25;;;5.65;100.00
15050;BME280;7622;42.724;23.250;2023-03-04T02:31:33;94624.50;;;5.67;100.00
15050;BME280;7622;42.724;23.250;2023-03-04T02:34:03;94622.19;;;5.75;100.00
15050;BME280;7622;42.724;23.250;2023-03-04T02:36:31;94630.78;;;5.41;100.00
15050;BME280;7622;42.724;23.250;2023-03-04T02:39:01;94629.19;;;5.62;100.00
15050;BME280;7622;42.724;23.250;2023-03-04T02:41:30;94626.25;;;5.44;100.00
15050;BME280;7622;42.724;23.250;2023-03-04T02:43:58;94616.31;;;5.51;100.00
15050;BME280;7622;42.724;23.250;2023-03-04T02:46:25;94617.03;;;5.53;100.00
15050;BME280;7622;42.724;23.250;2023-03-04T02:48:52;94611.06;;;5.52;100.00
15050;BME280;7622;42.724;23.250;2023-03-04T02:51:20;94610.22;;;5.52;100.00
15050;BME280;7622;42.724;23.250;2023-03-04T02:53:47;94606.78;;;5.40;100.00
15050;BME280;7622;42.724;23.250;2023-03-04T02:56:14;94600.13;;;5.38;100.00
15050;BME280;7622;42.724;23.250;2023-03-04T02:58:41;94603.97;;;5.32;100.00
15050;BME280;7622;42.724;23.250;2023-03-04T03:01:09;94602.44;;;5.30;100.00
15050;BME280;7622;42.724;23.250;2023-03-04T03:03:36;94604.09;;;5.31;100.00
15050;BME280;7622;42.724;23.250;2023-03-04T03:06:03;94605.03;;;5.30;100.00
15050;BME280;7622;42.724;23.250;2023-03-04T03:08:30;94605.94;;;5.29;100.00
15050;BME280;7622;42.724;23.250;2023-03-04T03:10:57;94604.75;;;5.22;100.00
15050;BME280;7622;42.724;23.250;2023-03-04T03:13:24;94608.78;;;5.37;100.00
15050;BME280;7622;42.724;23.250;2023-03-04T03:15:53;94611.94;;;5.40;100.00
15050;BME280;7622;42.724;23.250;2023-03-04T03:18:22;94613.28;;;5.57;100.00
15050;BME280;7622;42.724;23.250;2023-03-04T03:20:48;94607.88;;;5.49;100.00
15050;BME280;7622;42.724;23.250;2023-03-04T03:23:16;94609.03;;;5.45;100.00
15050;BME280;7622;42.724;23.250;2023-03-04T03:25:45;94606.50;;;5.21;100.00
15050;BME280;7622;42.724;23.250;2023-03-04T03:28:12;94605.47;;;5.24;100.00
15050;BME280;7622;42.724;23.250;2023-03-04T03:30:39;94604.56;;;5.25;100.00
15050;BME280;7622;42.724;23.250;2023-03-04T03:33:06;94602.63;;;5.15;100.00
15050;BME280;7622;42.724;23.250;2023-03-04T03:35:35;94596.50;;;5.05;100.00
15050;BME280;7622;42.724;23.250;2023-03-04T03:38:02;94604.59;;;5.12;100.00
15050;BME280;7622;42.724;23.250;2023-03-04T03:40:29;94597.78;;;5.00;100.00
15050;BME280;7622;42.724;23.250;2023-03-04T03:42:56;94601.66;;;5.05;100.00
15050;BME280;7622;42.724;23.250;2023-03-04T03:45:24;94601.72;;;4.93;100.00
15050;BME280;7622;42.724;23.250;2023-03-04T03:47:50;94601.97;;;4.90;100.00
15050;BME280;7622;42.724;23.250;2023-03-04T03:50:17;94595.44;;;4.97;100.00
15050;BME280;7622;42.724;23.250;2023-03-04T03:52:46;94597.84;;;4.87;100.00
15050;BME280;7622;42.724;23.250;2023-03-04T03:55:12;94600.47;;;4.98;100.00
15050;BME280;7622;42.724;23.250;2023-03-04T03:57:39;94593.94;;;5.05;100.00
15050;BME280;7622;42.724;23.250;2023-03-04T04:00:08;94586.66;;;4.99;100.00
15050;BME280;7622;42.724;23.250;2023-03-04T04:02:35;94594.75;;;5.06;100.00
15050;BME280;7622;42.724;23.250;2023-03-04T04:05:02;94586.84;;;5.20;100.00
15050;BME280;7622;42.724;23.250;2023-03-04T04:07:29;94582.13;;;5.03;100.00
15050;BME280;7622;42.724;23.250;2023-03-04T04:09:57;94579.75;;;5.00;100.00
15050;BME280;7622;42.724;23.250;2023-03-04T04:12:24;94580.66;;;5.11;100.00
15050;BME280;7622;42.724;23.250;2023-03-04T04:14:51;94579.94;;;5.21;100.00
15050;BME280;7622;42.724;23.250;2023-03-04T04:17:18;94583.22;;;5.23;100.00
15050;BME280;7622;42.724;23.250;2023-03-04T04:19:45;94585.91;;;5.10;100.00
15050;BME280;7622;42.724;23.250;2023-03-04T04:22:14;94579.63;;;4.90;100.00
15050;BME280;7622;42.724;23.250;2023-03-04T04:24:41;94579.69;;;4.78;100.00
15050;BME280;7622;42.724;23.250;2023-03-04T04:27:10;94554.13;;;4.63;100.00
15050;BME280;7622;42.724;23.250;2023-03-04T04:29:37;94581.25;;;4.91;100.00
15050;BME280;7622;42.724;23.250;2023-03-04T04:32:04;94583.78;;;4.80;100.00
15050;BME280;7622;42.724;23.250;2023-03-04T04:34:31;94573.84;;;4.75;100.00
15050;BME280;7622;42.724;23.250;2023-03-04T04:36:58;94584.53;;;4.93;100.00
15050;BME280;7622;42.724;23.250;2023-03-04T04:39:25;94586.44;;;5.02;100.00
15050;BME280;7622;42.724;23.250;2023-03-04T04:41:52;94587.50;;;5.00;100.00
15050;BME280;7622;42.724;23.250;2023-03-04T04:44:21;94579.28;;;4.95;100.00
15050;BME280;7622;42.724;23.250;2023-03-04T04:46:48;94583.50;;;4.72;100.00
15050;BME280;7622;42.724;23.250;2023-03-04T04:49:15;94586.41;;;4.91;100.00
15050;BME280;7622;42.724;23.250;2023-03-04T04:51:41;94585.91;;;4.86;100.00
15050;BME280;7622;42.724;23.250;2023-03-04T04:54:13;94587.56;;;4.87;100.00
15050;BME280;7622;42.724;23.250;2023-03-04T04:56:40;94586.81;;;4.74;100.00
15050;BME280;7622;42.724;23.250;2023-03-04T04:59:07;94589.47;;;4.72;100.00
15050;BME280;7622;42.724;23.250;2023-03-04T05:01:35;94597.84;;;4.87;100.00
15050;BME280;7622;42.724;23.250;2023-03-04T05:04:02;94596.44;;;4.83;100.00
15050;BME280;7622;42.724;23.250;2023-03-04T05:06:29;94606.94;;;4.80;100.00
15050;BME280;7622;42.724;23.250;2023-03-04T05:08:56;94611.88;;;4.83;100.00
15050;BME280;7622;42.724;23.250;2023-03-04T05:11:22;94608.16;;;4.87;100.00
15050;BME280;7622;42.724;23.250;2023-03-04T05:13:49;94611.19;;;4.92;100.00
15050;BME280;7622;42.724;23.250;2023-03-04T05:16:16;94611.53;;;4.88;100.00
15050;BME280;7622;42.724;23.250;2023-03-04T05:18:45;94615.97;;;4.86;100.00
15050;BME280;7622;42.724;23.250;2023-03-04T05:21:12;94616.59;;;4.89;100.00
15050;BME280;7622;42.724;23.250;2023-03-04T05:23:40;94604.28;;;4.82;100.00
15050;BME280;7622;42.724;23.250;2023-03-04T05:26:08;94615.66;;;4.90;100.00
15050;BME280;7622;42.724;23.250;2023-03-04T05:28:37;94617.78;;;4.96;100.00
15050;BME280;7622;42.724;23.250;2023-03-04T05:31:04;94621.78;;;5.00;100.00
15050;BME280;7622;42.724;23.250;2023-03-04T05:33:31;94612.63;;;4.96;100.00
15050;BME280;7622;42.724;23.250;2023-03-04T05:35:59;94611.53;;;5.11;100.00
15050;BME280;7622;42.724;23.250;2023-03-04T05:38:26;94622.03;;;5.43;100.00
15050;BME280;7622;42.724;23.250;2023-03-04T05:40:56;94627.75;;;5.47;100.00
15050;BME280;7622;42.724;23.250;2023-03-04T05:43:23;94626.16;;;5.46;100.00
15050;BME280;7622;42.724;23.250;2023-03-04T05:45:50;94625.22;;;5.58;100.00
15050;BME280;7622;42.724;23.250;2023-03-04T05:48:17;94626.03;;;5.59;100.00
15050;BME280;7622;42.724;23.250;2023-03-04T05:50:43;94622.38;;;5.39;100.00
15050;BME280;7622;42.724;23.250;2023-03-04T05:53:12;94634.28;;;5.40;100.00
15050;BME280;7622;42.724;23.250;2023-03-04T05:55:39;94636.88;;;5.40;100.00
15050;BME280;7622;42.724;23.250;2023-03-04T05:58:05;94628.81;;;5.44;100.00
15050;BME280;7622;42.724;23.250;2023-03-04T06:00:32;94638.34;;;5.66;100.00
15050;BME280;7622;42.724;23.250;2023-03-04T06:02:59;94643.75;;;5.74;100.00
15050;BME280;7622;42.724;23.250;2023-03-04T06:05:26;94638.34;;;5.66;100.00
15050;BME280;7622;42.724;23.250;2023-03-04T06:07:52;94634.28;;;5.40;100.00
15050;BME280;7622;42.724;23.250;2023-03-04T06:10:21;94643.72;;;5.63;100.00
15050;BME280;7622;42.724;23.250;2023-03-04T06:12:48;94640.66;;;5.93;100.00
15050;BME280;7622;42.724;23.250;2023-03-04T06:15:14;94645.88;;;5.80;100.00
15050;BME280;7622;42.724;23.250;2023-03-04T06:17:41;94653.06;;;5.99;100.00
15050;BME280;7622;42.724;23.250;2023-03-04T06:20:11;94651.31;;;6.22;100.00
15050;BME280;7622;42.724;23.250;2023-03-04T06:22:38;94653.91;;;6.00;100.00
15050;BME280;7622;42.724;23.250;2023-03-04T06:25:06;94645.44;;;5.98;100.00
15050;BME280;7622;42.724;23.250;2023-03-04T06:27:34;94656.00;;;6.06;100.00
15050;BME280;7622;42.724;23.250;2023-03-04T06:30:01;94652.38;;;6.08;100.00
15050;BME280;7622;42.724;23.250;2023-03-04T06:32:28;94652.72;;;6.26;100.00
15050;BME280;7622;42.724;23.250;2023-03-04T06:34:55;94650.72;;;6.41;100.00
15050;BME280;7622;42.724;23.250;2023-03-04T06:37:22;94667.59;;;6.45;100.00
15050;BME280;7622;42.724;23.250;2023-03-04T06:39:49;94663.50;;;6.42;100.00
15050;BME280;7622;42.724;23.250;2023-03-04T06:42:16;94662.56;;;6.32;100.00
15050;BME280;7622;42.724;23.250;2023-03-04T06:44:45;94648.25;;;6.39;100.00
15050;BME280;7622;42.724;23.250;2023-03-04T06:47:12;94656.72;;;7.27;100.00
15050;BME280;7622;42.724;23.250;2023-03-04T06:49:39;94615.63;;;7.03;100.00
15050;BME280;7622;42.724;23.250;2023-03-04T06:52:07;94654.41;;;7.13;100.00
15050;BME280;7622;42.724;23.250;2023-03-04T06:54:35;94660.84;;;6.98;100.00
15050;BME280;7622;42.724;23.250;2023-03-04T06:57:02;94659.22;;;6.75;100.00
15050;BME280;7622;42.724;23.250;2023-03-04T06:59:29;94661.81;;;6.75;100.00
15050;BME280;7622;42.724;23.250;2023-03-04T07:01:57;94668.69;;;6.85;100.00
15050;BME280;7622;42.724;23.250;2023-03-04T07:04:24;94670.75;;;6.70;100.00
15050;BME280;7622;42.724;23.250;2023-03-04T07:06:51;94673.56;;;6.45;100.00
15050;BME280;7622;42.724;23.250;2023-03-04T07:09:18;94672.75;;;6.67;100.00
15050;BME280;7622;42.724;23.250;2023-03-04T07:11:45;94671.34;;;6.63;100.00
15050;BME280;7622;42.724;23.250;2023-03-04T07:14:12;94678.84;;;6.55;100.00
15050;BME280;7622;42.724;23.250;2023-03-04T07:16:39;94675.00;;;6.49;100.00
15050;BME280;7622;42.724;23.250;2023-03-04T07:19:08;94670.19;;;6.33;100.00
15050;BME280;7622;42.724;23.250;2023-03-04T07:21:34;94683.91;;;6.45;100.00
15050;BME280;7622;42.724;23.250;2023-03-04T07:24:02;94679.66;;;6.66;100.00
15050;BME280;7622;42.724;23.250;2023-03-04T07:26:29;94682.00;;;6.69;100.00
15050;BME280;7622;42.724;23.250;2023-03-04T07:28:56;94682.50;;;6.63;100.00
15050;BME280;7622;42.724;23.250;2023-03-04T07:31:26;94678.84;;;6.55;100.00
15050;BME280;7622;42.724;23.250;2023-03-04T07:33:56;94673.47;;;7.01;100.00
15050;BME280;7622;42.724;23.250;2023-03-04T07:36:25;94672.16;;;7.18;100.00
15050;BME280;7622;42.724;23.250;2023-03-04T07:38:52;94673.47;;;7.12;100.00
15050;BME280;7622;42.724;23.250;2023-03-04T07:41:21;94669.69;;;7.16;100.00
15050;BME280;7622;42.724;23.250;2023-03-04T07:43:48;94676.81;;;7.24;100.00
15050;BME280;7622;42.724;23.250;2023-03-04T07:46:16;94670.66;;;7.36;100.00
15050;BME280;7622;42.724;23.250;2023-03-04T07:48:43;94665.00;;;7.83;100.00
15050;BME280;7622;42.724;23.250;2023-03-04T07:51:11;94663.53;;;7.81;100.00
15050;BME280;7622;42.724;23.250;2023-03-04T07:53:41;94659.34;;;7.69;100.00
15050;BME280;7622;42.724;23.250;2023-03-04T07:56:12;94661.28;;;7.35;100.00
15050;BME280;7622;42.724;23.250;2023-03-04T07:58:39;94673.13;;;7.37;100.00
15050;BME280;7622;42.724;23.250;2023-03-04T08:01:10;94646.56;;;7.15;100.00
15050;BME280;7622;42.724;23.250;2023-03-04T08:03:36;94666.72;;;7.53;100.00
15050;BME280;7622;42.724;23.250;2023-03-04T08:06:05;94661.06;;;7.59;100.00
15050;BME280;7622;42.724;23.250;2023-03-04T08:08:32;94658.63;;;7.25;100.00
15050;BME280;7622;42.724;23.250;2023-03-04T08:11:03;94653.72;;;7.43;100.00
15050;BME280;7622;42.724;23.250;2023-03-04T08:13:30;94651.03;;;7.44;100.00
15050;BME280;7622;42.724;23.250;2023-03-04T08:15:57;94651.97;;;7.43;100.00
15050;BME280;7622;42.724;23.250;2023-03-04T08:18:24;94655.75;;;7.39;100.00
15050;BME280;7622;42.724;23.250;2023-03-04T08:20:50;94653.41;;;7.36;100.00
15050;BME280;7622;42.724;23.250;2023-03-04T08:23:17;94655.38;;;7.44;100.00
15050;BME280;7622;42.724;23.250;2023-03-04T08:25:45;94657.88;;;7.34;100.00
15050;BME280;7622;42.724;23.250;2023-03-04T08:28:13;94655.03;;;7.37;100.00
15050;BME280;7622;42.724;23.250;2023-03-04T08:30:41;94651.63;;;7.37;100.00
15050;BME280;7622;42.724;23.250;2023-03-04T08:33:08;94661.47;;;7.43;100.00
15050;BME280;7622;42.724;23.250;2023-03-04T08:35:36;94652.47;;;7.37;100.00
15050;BME280;7622;42.724;23.250;2023-03-04T08:38:03;94652.47;;;7.37;100.00
15050;BME280;7622;42.724;23.250;2023-03-04T08:40:31;94650.63;;;7.28;100.00
15050;BME280;7622;42.724;23.250;2023-03-04T08:42:57;94645.13;;;7.54;100.00
15050;BME280;7622;42.724;23.250;2023-03-04T08:45:26;94649.25;;;7.45;100.00
15050;BME280;7622;42.724;23.250;2023-03-04T08:47:53;94647.50;;;7.45;100.00
15050;BME280;7622;42.724;23.250;2023-03-04T08:50:20;94643.47;;;7.53;100.00
15050;BME280;7622;42.724;23.250;2023-03-04T08:52:47;94641.75;;;7.63;100.00
15050;BME280;7622;42.724;23.250;2023-03-04T08:55:13;94646.91;;;7.42;100.00
15050;BME280;7622;42.724;23.250;2023-03-04T08:57:40;94641.84;;;7.40;100.00
15050;BME280;7622;42.724;23.250;2023-03-04T09:00:08;94640.19;;;7.50;100.00
15050;BME280;7622;42.724;23.250;2023-03-04T09:02:36;94643.16;;;7.67;100.00
15050;BME280;7622;42.724;23.250;2023-03-04T09:05:04;94632.97;;;7.75;100.00
15050;BME280;7622;42.724;23.250;2023-03-04T09:07:31;94642.53;;;7.54;100.00
15050;BME280;7622;42.724;23.250;2023-03-04T09:09:58;94632.84;;;7.76;100.00
15050;BME280;7622;42.724;23.250;2023-03-04T09:12:25;94636.22;;;7.88;100.00
15050;BME280;7622;42.724;23.250;2023-03-04T09:14:52;94628.31;;;8.20;100.00
15050;BME280;7622;42.724;23.250;2023-03-04T09:17:18;94635.38;;;8.39;100.00
15050;BME280;7622;42.724;23.250;2023-03-04T09:19:47;94626.72;;;7.98;100.00
15050;BME280;7622;42.724;23.250;2023-03-04T09:22:13;94623.38;;;8.07;100.00
15050;BME280;7622;42.724;23.250;2023-03-04T09:24:40;94628.72;;;8.15;100.00
15050;BME280;7622;42.724;23.250;2023-03-04T09:27:08;94629.41;;;8.48;100.00
15050;BME280;7622;42.724;23.250;2023-03-04T09:29:34;94623.28;;;8.58;100.00
15050;BME280;7622;42.724;23.250;2023-03-04T09:32:01;94622.06;;;8.53;100.00
15050;BME280;7622;42.724;23.250;2023-03-04T09:34:28;94618.56;;;8.73;100.00
15050;BME280;7622;42.724;23.250;2023-03-04T09:36:56;94617.75;;;8.73;100.00
15050;BME280;7622;42.724;23.250;2023-03-04T09:39:23;94610.53;;;8.76;100.00
15050;BME280;7622;42.724;23.250;2023-03-04T09:41:52;94616.44;;;8.97;100.00
15050;BME280;7622;42.724;23.250;2023-03-04T09:44:23;94613.38;;;8.73;100.00
15050;BME280;7622;42.724;23.250;2023-03-04T09:46:51;94617.50;;;8.76;100.00
15050;BME280;7622;42.724;23.250;2023-03-04T09:49:20;94615.59;;;8.87;100.00
15050;BME280;7622;42.724;23.250;2023-03-04T09:51:53;94603.09;;;9.12;100.00
15050;BME280;7622;42.724;23.250;2023-03-04T09:54:42;94608.25;;;9.31;100.00
15050;BME280;7622;42.724;23.250;2023-03-04T09:57:23;94606.63;;;9.11;100.00
15050;BME280;7622;42.724;23.250;2023-03-04T10:00:00;94609.91;;;9.32;100.00
15050;BME280;7622;42.724;23.250;2023-03-04T10:02:37;94604.69;;;9.61;100.00
15050;BME280;7622;42.724;23.250;2023-03-04T10:05:06;94606.31;;;9.71;100.00
15050;BME280;7622;42.724;23.250;2023-03-04T10:07:36;94602.31;;;9.86;100.00
15050;BME280;7622;42.724;23.250;2023-03-04T10:10:12;94592.16;;;9.37;100.00
15050;BME280;7622;42.724;23.250;2023-03-04T10:12:42;94590.91;;;9.60;100.00
15050;BME280;7622;42.724;23.250;2023-03-04T10:15:22;94592.09;;;9.75;100.00
15050;BME280;7622;42.724;23.250;2023-03-04T10:17:51;94565.28;;;9.38;100.00
15050;BME280;7622;42.724;23.250;2023-03-04T10:20:22;94583.69;;;9.44;100.00
15050;BME280;7622;42.724;23.250;2023-03-04T10:22:51;94586.44;;;9.33;100.00
15050;BME280;7622;42.724;23.250;2023-03-04T10:25:22;94576.34;;;9.30;100.00
15050;BME280;7622;42.724;23.250;2023-03-04T10:27:51;94576.31;;;9.59;100.00
15050;BME280;7622;42.724;23.250;2023-03-04T10:30:31;94572.16;;;9.76;100.00
15050;BME280;7622;42.724;23.250;2023-03-04T10:33:08;94571.75;;;9.80;100.00
15050;BME280;7622;42.724;23.250;2023-03-04T10:35:35;94558.53;;;9.64;100.00
15050;BME280;7622;42.724;23.250;2023-03-04T10:38:03;94555.63;;;9.77;100.00
15050;BME280;7622;42.724;23.250;2023-03-04T10:40:38;94554.22;;;10.02;100.00
15050;BME280;7622;42.724;23.250;2023-03-04T10:43:08;94553.88;;;9.77;100.00
15050;BME280;7622;42.724;23.250;2023-03-04T10:45:38;94552.28;;;9.47;100.00
15050;BME280;7622;42.724;23.250;2023-03-04T10:48:05;94513.72;;;9.81;100.00
15050;BME280;7622;42.724;23.250;2023-03-04T10:50:32;94539.59;;;10.01;100.00
15050;BME280;7622;42.724;23.250;2023-03-04T10:52:59;94536.97;;;9.73;100.00
15050;BME280;7622;42.724;23.250;2023-03-04T10:55:27;94537.97;;;9.43;100.00
15050;BME280;7622;42.724;23.250;2023-03-04T10:58:01;94537.81;;;9.55;100.00
15050;BME280;7622;42.724;23.250;2023-03-04T11:00:30;94530.47;;;9.50;100.00
15050;BME280;7622;42.724;23.250;2023-03-04T11:03:22;94532.66;;;9.92;100.00
15050;BME280;7622;42.724;23.250;2023-03-04T11:05:49;94518.59;;;9.94;100.00
15050;BME280;7622;42.724;23.250;2023-03-04T11:08:20;94513.34;;;10.04;100.00
15050;BME280;7622;42.724;23.250;2023-03-04T11:10:48;94515.22;;;9.84;100.00
15050;BME280;7622;42.724;23.250;2023-03-04T11:13:20;94449.72;;;10.00;100.00
15050;BME280;7622;42.724;23.250;2023-03-04T11:15:50;94503.19;;;10.10;100.00
15050;BME280;7622;42.724;23.250;2023-03-04T11:18:19;94498.56;;;9.86;100.00
15050;BME280;7622;42.724;23.250;2023-03-04T11:20:49;94502.94;;;9.76;100.00
15050;BME280;7622;42.724;23.250;2023-03-04T11:23:17;94487.66;;;9.46;100.00
15050;BME280;7622;42.724;23.250;2023-03-04T11:25:51;94484.22;;;9.82;100.00
15050;BME280;7622;42.724;23.250;2023-03-04T11:28:25;94480.06;;;9.99;100.00
15050;BME280;7622;42.724;23.250;2023-03-04T11:30:57;94475.81;;;9.71;100.00
15050;BME280;7622;42.724;23.250;2023-03-04T11:33:31;94470.28;;;9.83;100.00
15050;BME280;7622;42.724;23.250;2023-03-04T11:36:10;94469.34;;;9.84;100.00
15050;BME280;7622;42.724;23.250;2023-03-04T11:38:45;94469.72;;;9.89;100.00
15050;BME280;7622;42.724;23.250;2023-03-04T11:41:16;94473.16;;;9.53;100.00
15050;BME280;7622;42.724;23.250;2023-03-04T11:43:46;94465.84;;;9.20;100.00
15050;BME280;7622;42.724;23.250;2023-03-04T11:46:28;94469.13;;;9.22;100.00
15050;BME280;7622;42.724;23.250;2023-03-04T11:49:24;94460.47;;;9.50;100.00
15050;BME280;7622;42.724;23.250;2023-03-04T11:52:01;94454.38;;;9.96;100.00
15050;BME280;7622;42.724;23.250;2023-03-04T11:54:34;94417.00;;;9.62;100.00
15050;BME280;7622;42.724;23.250;2023-03-04T11:57:20;94449.72;;;10.00;100.00
15050;BME280;7622;42.724;23.250;2023-03-04T12:00:00;94443.59;;;10.28;100.00
15050;BME280;7622;42.724;23.250;2023-03-04T12:02:34;94438.91;;;10.67;100.00
15050;BME280;7622;42.724;23.250;2023-03-04T12:05:16;94443.66;;;10.54;100.00
15050;BME280;7622;42.724;23.250;2023-03-04T12:07:53;94442.13;;;10.43;100.00
15050;BME280;7622;42.724;23.250;2023-03-04T12:10:27;94441.97;;;10.62;100.00
15050;BME280;7622;42.724;23.250;2023-03-04T12:13:15;94426.84;;;11.27;100.00
15050;BME280;7622;42.724;23.250;2023-03-04T12:15:54;94425.78;;;11.12;100.00
15050;BME280;7622;42.724;23.250;2023-03-04T12:18:37;94428.25;;;10.96;100.00
15050;BME280;7622;42.724;23.250;2023-03-04T12:21:28;94419.09;;;11.10;100.00
15050;BME280;7622;42.724;23.250;2023-03-04T12:24:18;94423.69;;;11.16;100.00
15050;BME280;7622;42.724;23.250;2023-03-04T12:26:50;94423.91;;;10.79;100.00
15050;BME280;7622;42.724;23.250;2023-03-04T12:29:26;94407.94;;;10.74;100.00
15050;BME280;7622;42.724;23.250;2023-03-04T12:32:02;94414.56;;;10.68;100.00
15050;BME280;7622;42.724;23.250;2023-03-04T12:34:41;94411.56;;;10.37;100.00
15050;BME280;7622;42.724;23.250;2023-03-04T12:37:42;94407.84;;;10.22;100.00
15050;BME280;7622;42.724;23.250;2023-03-04T12:40:24;94401.03;;;10.11;100.00
15050;BME280;7622;42.724;23.250;2023-03-04T12:43:02;94395.75;;;10.03;100.00
15050;BME280;7622;42.724;23.250;2023-03-04T12:45:39;94402.66;;;10.22;100.00
15050;BME280;7622;42.724;23.250;2023-03-04T12:48:21;94396.50;;;9.96;100.00
15050;BME280;7622;42.724;23.250;2023-03-04T12:50:57;94402.56;;;9.86;100.00
15050;BME280;7622;42.724;23.250;2023-03-04T12:53:32;94392.94;;;9.97;100.00
15050;BME280;7622;42.724;23.250;2023-03-04T12:56:03;94390.97;;;10.08;100.00
15050;BME280;7622;42.724;23.250;2023-03-04T12:58:32;94385.16;;;9.97;100.00
15050;BME280;7622;42.724;23.250;2023-03-04T13:01:05;94386.22;;;9.76;100.00
15050;BME280;7622;42.724;23.250;2023-03-04T13:03:40;94383.25;;;9.71;100.00
15050;BME280;7622;42.724;23.250;2023-03-04T13:06:29;94374.63;;;9.98;100.00
15050;BME280;7622;42.724;23.250;2023-03-04T13:09:03;94376.19;;;9.91;100.00
15050;BME280;7622;42.724;23.250;2023-03-04T13:11:44;94371.78;;;10.19;100.00